Time;durP1;ratioP1;P1;durP2;ratioP2;P2;SDS_P1;SDS_P2;PMS_P1;PMS_P2;Temp;Humidity;BMP_temperature;BMP_pressure;BME280_temperature;BME280_humidity;BME280_pressure;Samples;Min_cycle;Max_cycle;Signal;HPM_P1;HPM_P2
2023/12/23 00:00:23;;;;;;;7.57;1.17;;;11.20;99.90;;;;;;5056312;28;20043;-67
2023/12/23 00:02:50;;;;;;;11.63;1.55;;;11.20;99.90;;;;;;5056196;28;20128;-66
2023/12/23 00:05:16;;;;;;;8.35;1.20;;;11.30;99.90;;;;;;5072272;28;20033;-65
2023/12/23 00:07:42;;;;;;;8.57;1.98;;;11.30;99.90;;;;;;5072087;28;20471;-66
2023/12/23 00:10:08;;;;;;;6.47;1.10;;;11.30;99.90;;;;;;5056184;28;20446;-66
2023/12/23 00:12:33;;;;;;;6.82;1.30;;;11.20;99.90;;;;;;5074339;28;20053;-66
2023/12/23 00:14:59;;;;;;;9.32;1.45;;;11.20;99.90;;;;;;5075777;28;20059;-69
2023/12/23 00:17:25;;;;;;;5.85;1.20;;;11.30;99.90;;;;;;5059785;28;20125;-65
2023/12/23 00:19:51;;;;;;;12.13;1.45;;;11.20;99.90;;;;;;5058999;28;20060;-67
2023/12/23 00:22:16;;;;;;;10.45;1.50;;;11.30;99.90;;;;;;5059674;28;20029;-66
2023/12/23 00:24:42;;;;;;;7.40;1.20;;;11.30;99.90;;;;;;5059630;28;20068;-67
2023/12/23 00:27:08;;;;;;;5.80;1.10;;;11.30;99.90;;;;;;5075324;28;20120;-65
2023/12/23 00:29:34;;;;;;;7.22;1.50;;;11.30;99.90;;;;;;5059411;28;20447;-67
2023/12/23 00:31:59;;;;;;;7.07;1.10;;;11.30;99.90;;;;;;5059461;28;20036;-64
2023/12/23 00:34:27;;;;;;;6.88;1.65;;;11.30;99.90;;;;;;5058709;28;20032;-70
2023/12/23 00:36:53;;;;;;;8.98;1.27;;;11.40;99.90;;;;;;5059414;28;20305;-66
2023/12/23 00:39:19;;;;;;;8.98;1.40;;;11.40;99.90;;;;;;5058627;28;20058;-65
2023/12/23 00:41:45;;;;;;;5.22;0.90;;;11.40;99.90;;;;;;5075209;28;20108;-68
2023/12/23 00:44:11;;;;;;;6.80;1.20;;;11.40;99.90;;;;;;5041981;28;20422;-66
2023/12/23 00:46:37;;;;;;;6.82;1.25;;;11.30;99.90;;;;;;5075322;28;20095;-66
2023/12/23 00:49:03;;;;;;;6.93;1.10;;;11.30;99.90;;;;;;5058435;28;20094;-66
2023/12/23 00:51:30;;;;;;;6.07;1.25;;;11.30;99.90;;;;;;5075034;28;20026;-67
2023/12/23 00:53:57;;;;;;;6.00;0.98;;;11.30;99.90;;;;;;5059114;28;20025;-68
2023/12/23 00:56:24;;;;;;;5.00;1.02;;;11.40;99.90;;;;;;5059049;28;20033;-68
2023/12/23 00:58:50;;;;;;;5.22;0.85;;;11.50;99.90;;;;;;5041726;28;20323;-72
2023/12/23 01:01:16;;;;;;;6.97;1.10;;;11.40;99.90;;;;;;5059008;28;20025;-64
2023/12/23 01:03:45;;;;;;;5.07;1.17;;;11.20;99.90;;;;;;5058917;28;20351;-67
2023/12/23 01:06:11;;;;;;;5.13;1.05;;;11.30;99.90;;;;;;5058856;28;20051;-69
2023/12/23 01:08:36;;;;;;;5.65;1.30;;;11.40;99.90;;;;;;5074680;28;20037;-63
2023/12/23 01:11:02;;;;;;;5.85;1.25;;;11.40;99.90;;;;;;5058832;28;20029;-65
2023/12/23 01:13:28;;;;;;;5.55;1.00;;;11.50;99.90;;;;;;5058026;28;20036;-67
2023/12/23 01:15:54;;;;;;;5.75;0.73;;;11.50;99.90;;;;;;5074689;28;20033;-65
2023/12/23 01:18:20;;;;;;;9.95;1.42;;;11.30;99.90;;;;;;5058609;28;20159;-69
2023/12/23 01:20:46;;;;;;;5.13;0.90;;;11.20;99.90;;;;;;5058682;28;20029;-67
2023/12/23 01:23:12;;;;;;;9.45;1.70;;;11.30;99.90;;;;;;5057634;28;20104;-69
2023/12/23 01:25:38;;;;;;;11.05;2.20;;;11.30;99.90;;;;;;5058544;28;20102;-68
2023/12/23 01:28:04;;;;;;;9.93;1.45;;;11.30;99.90;;;;;;5041216;28;20128;-68
2023/12/23 01:30:34;;;;;;;9.25;1.45;;;11.30;99.90;;;;;;5058300;28;20340;-68
2023/12/23 01:33:00;;;;;;;7.68;1.27;;;11.10;99.90;;;;;;5058445;28;20392;-68
2023/12/23 01:35:26;;;;;;;3.25;1.33;;;11.10;99.90;;;;;;5058349;28;20332;-65
2023/12/23 01:37:52;;;;;;;5.78;1.40;;;11.00;99.90;;;;;;5058240;28;20388;-66
2023/12/23 01:40:18;;;;;;;6.07;1.30;;;11.10;99.90;;;;;;5058199;28;20118;-67
2023/12/23 01:42:44;;;;;;;5.60;1.08;;;11.10;99.90;;;;;;5058220;28;20083;-66
2023/12/23 01:45:10;;;;;;;4.93;1.40;;;11.20;99.90;;;;;;5057471;28;20380;-63
2023/12/23 01:47:40;;;;;;;4.97;1.02;;;11.20;99.90;;;;;;5058012;28;20393;-68
2023/12/23 01:50:09;;;;;;;4.15;0.90;;;11.30;99.90;;;;;;5058027;28;20043;-67
2023/12/23 01:52:38;;;;;;;7.28;1.40;;;11.10;99.90;;;;;;5057944;28;20396;-68
2023/12/23 01:55:08;;;;;;;3.78;1.30;;;11.20;99.90;;;;;;5057993;28;20308;-67
2023/12/23 01:57:35;;;;;;;10.90;1.67;;;11.20;99.90;;;;;;5057932;28;20108;-68
2023/12/23 02:00:01;;;;;;;7.75;1.42;;;11.20;99.90;;;;;;5057929;28;20384;-66
2023/12/23 02:02:28;;;;;;;5.07;1.00;;;11.20;99.90;;;;;;5073783;28;20150;-68
2023/12/23 02:04:56;;;;;;;3.95;0.80;;;11.20;99.90;;;;;;5073684;28;20052;-65
2023/12/23 02:07:21;;;;;;;5.82;1.40;;;11.30;99.90;;;;;;5073530;28;20361;-69
2023/12/23 02:09:47;;;;;;;5.38;1.35;;;11.10;99.90;;;;;;5057733;28;20047;-68
2023/12/23 02:12:26;;;;;;;6.53;1.40;;;11.00;99.90;;;;;;5057619;28;20400;-66
2023/12/23 02:15:07;;;;;;;6.43;1.67;;;11.00;99.90;;;;;;5073430;28;20036;-65
2023/12/23 02:17:33;;;;;;;4.75;1.25;;;11.00;99.90;;;;;;5057500;28;20036;-67
2023/12/23 02:19:59;;;;;;;4.93;1.15;;;11.00;99.90;;;;;;5056917;28;20025;-66
2023/12/23 02:22:25;;;;;;;6.25;1.50;;;11.00;99.90;;;;;;5057426;28;20033;-67
2023/12/23 02:24:51;;;;;;;7.32;1.35;;;11.00;99.90;;;;;;5057424;28;20029;-67
2023/12/23 02:27:25;;;;;;;10.93;1.55;;;10.90;99.90;;;;;;5056512;28;20068;-66
2023/12/23 02:29:52;;;;;;;9.23;1.58;;;10.80;99.90;;;;;;5057120;28;20045;-64
2023/12/23 02:32:19;;;;;;;11.50;1.77;;;10.90;99.90;;;;;;5057293;28;20079;-65
2023/12/23 02:34:46;;;;;;;9.77;1.40;;;10.90;99.90;;;;;;5056415;28;20029;-65
2023/12/23 02:37:12;;;;;;;4.50;1.48;;;10.80;99.90;;;;;;5057225;28;20416;-63
2023/12/23 02:39:37;;;;;;;6.85;1.40;;;10.80;99.90;;;;;;5057097;28;20167;-64
2023/12/23 02:42:04;;;;;;;5.55;1.73;;;10.70;99.90;;;;;;5072971;28;20408;-64
2023/12/23 02:44:30;;;;;;;5.75;1.10;;;10.60;99.90;;;;;;5072983;28;20029;-64
2023/12/23 02:46:56;;;;;;;8.40;1.65;;;10.60;99.90;;;;;;5056230;28;20043;-67
2023/12/23 02:49:21;;;;;;;8.52;1.17;;;10.70;99.90;;;;;;5057051;28;20111;-67
2023/12/23 02:51:47;;;;;;;7.88;1.35;;;10.70;99.90;;;;;;5056158;28;20415;-68
2023/12/23 02:54:13;;;;;;;4.10;1.13;;;10.70;99.90;;;;;;5039568;28;20039;-66
2023/12/23 02:56:39;;;;;;;10.05;1.63;;;10.60;99.90;;;;;;5056911;28;20029;-66
2023/12/23 02:59:05;;;;;;;7.10;1.48;;;10.60;99.90;;;;;;5072742;28;20435;-63
2023/12/23 03:01:30;;;;;;;7.28;1.60;;;10.70;99.90;;;;;;5056046;28;20044;-63
2023/12/23 03:03:56;;;;;;;5.22;1.30;;;10.70;99.90;;;;;;5056807;28;20025;-65
2023/12/23 03:06:22;;;;;;;5.78;1.70;;;10.60;99.90;;;;;;5072697;28;20021;-63
2023/12/23 03:08:48;;;;;;;4.57;1.00;;;10.70;99.90;;;;;;5056707;28;20179;-62
2023/12/23 03:11:13;;;;;;;4.70;1.20;;;10.90;99.90;;;;;;5056703;28;20028;-63
2023/12/23 03:13:39;;;;;;;8.32;1.38;;;10.90;99.90;;;;;;5056698;28;20112;-66
2023/12/23 03:16:18;;;;;;;7.70;1.33;;;10.80;99.90;;;;;;5056011;28;20033;-65
2023/12/23 03:18:44;;;;;;;5.43;1.23;;;10.70;99.90;;;;;;5056732;28;20029;-61
2023/12/23 03:21:10;;;;;;;9.13;1.50;;;10.60;99.90;;;;;;5039227;28;20048;-65
2023/12/23 03:23:36;;;;;;;7.95;1.58;;;10.50;99.90;;;;;;5055809;28;20312;-64
2023/12/23 03:26:03;;;;;;;7.45;1.75;;;10.60;99.90;;;;;;5039390;28;20047;-64
2023/12/23 03:28:29;;;;;;;5.03;1.33;;;10.50;99.90;;;;;;5055706;28;20033;-65
2023/12/23 03:30:55;;;;;;;4.97;1.42;;;10.50;99.90;;;;;;5056426;28;20080;-64
2023/12/23 03:33:21;;;;;;;5.32;1.42;;;10.60;99.90;;;;;;5056357;28;20076;-62
2023/12/23 03:35:47;;;;;;;7.88;1.50;;;10.70;99.90;;;;;;5056525;28;20033;-66
2023/12/23 03:38:12;;;;;;;6.68;1.50;;;10.70;99.90;;;;;;5055686;28;20420;-63
2023/12/23 03:40:38;;;;;;;5.78;1.63;;;10.60;99.90;;;;;;5055745;28;20162;-65
2023/12/23 03:43:04;;;;;;;8.93;1.98;;;10.50;99.90;;;;;;5055815;28;20079;-63
2023/12/23 03:45:31;;;;;;;8.07;2.00;;;10.60;99.90;;;;;;5056349;28;20083;-64
2023/12/23 03:47:56;;;;;;;6.55;1.88;;;10.70;99.90;;;;;;5059247;28;20363;-65
2023/12/23 03:50:22;;;;;;;10.57;2.00;;;10.60;99.90;;;;;;5059464;28;20033;-62
2023/12/23 03:52:48;;;;;;;7.20;1.52;;;10.80;99.90;;;;;;5042971;28;20414;-67
2023/12/23 03:55:14;;;;;;;7.90;1.80;;;10.70;99.90;;;;;;5059529;28;20047;-63
2023/12/23 03:57:43;;;;;;;4.90;1.25;;;10.70;99.90;;;;;;5059424;28;20052;-64
2023/12/23 04:00:09;;;;;;;10.90;1.50;;;10.80;99.90;;;;;;5060196;28;20400;-64
2023/12/23 04:02:44;;;;;;;7.32;1.48;;;10.70;99.90;;;;;;5060141;28;20105;-66
2023/12/23 04:05:10;;;;;;;7.90;1.25;;;10.70;99.90;;;;;;5075979;28;20032;-64
2023/12/23 04:07:35;;;;;;;6.60;1.35;;;10.70;99.90;;;;;;5059900;28;20376;-62
2023/12/23 04:10:01;;;;;;;8.35;1.40;;;10.60;99.90;;;;;;5059141;28;20155;-64
2023/12/23 04:12:27;;;;;;;6.70;1.30;;;10.70;99.90;;;;;;5042476;28;20033;-65
2023/12/23 04:14:53;;;;;;;5.90;1.83;;;10.70;99.90;;;;;;5042528;28;20025;-64
2023/12/23 04:17:20;;;;;;;6.70;1.27;;;10.80;99.90;;;;;;5025957;28;20040;-65
2023/12/23 04:19:46;;;;;;;9.20;1.70;;;10.60;99.90;;;;;;5042538;28;20048;-68
2023/12/23 04:22:11;;;;;;;7.40;1.25;;;10.50;99.90;;;;;;5059663;28;20099;-67
2023/12/23 04:24:37;;;;;;;7.63;1.10;;;10.60;99.90;;;;;;5059660;28;20388;-65
2023/12/23 04:27:03;;;;;;;3.25;1.20;;;10.60;99.90;;;;;;5075560;28;20393;-65
2023/12/23 04:29:30;;;;;;;7.32;1.35;;;10.70;99.90;;;;;;5059223;28;20061;-65
2023/12/23 04:31:56;;;;;;;8.23;1.60;;;10.70;99.90;;;;;;5058722;28;20033;-66
2023/12/23 04:34:22;;;;;;;8.57;1.35;;;10.70;99.90;;;;;;5075377;28;20091;-66
2023/12/23 04:36:48;;;;;;;5.82;1.52;;;10.60;99.90;;;;;;5059462;28;20395;-65
2023/12/23 04:39:15;;;;;;;5.25;1.13;;;10.70;99.90;;;;;;5075259;28;20129;-65
2023/12/23 04:41:47;;;;;;;8.10;1.27;;;10.70;99.90;;;;;;5075286;28;20045;-65
2023/12/23 04:44:14;;;;;;;6.18;1.10;;;10.70;99.90;;;;;;5058619;28;20033;-66
2023/12/23 04:46:42;;;;;;;9.20;1.40;;;10.80;99.90;;;;;;5059260;28;20067;-64
2023/12/23 04:49:09;;;;;;;7.30;1.50;;;10.80;99.90;;;;;;5058981;28;20097;-64
2023/12/23 04:51:35;;;;;;;10.77;1.40;;;10.80;99.90;;;;;;5075066;28;20351;-65
2023/12/23 04:54:01;;;;;;;7.53;1.60;;;10.80;99.90;;;;;;5058183;28;20102;-65
2023/12/23 04:56:27;;;;;;;3.83;1.25;;;10.80;99.90;;;;;;5058316;28;20056;-66
2023/12/23 04:58:52;;;;;;;6.07;1.40;;;10.80;99.90;;;;;;5073586;28;20124;-64
2023/12/23 05:01:18;;;;;;;5.10;1.02;;;10.80;99.90;;;;;;5025093;28;20324;-64
2023/12/23 05:03:44;;;;;;;6.70;1.58;;;10.80;99.90;;;;;;5058195;28;20075;-65
2023/12/23 05:06:10;;;;;;;6.65;1.65;;;10.70;99.90;;;;;;5058865;28;20170;-65
2023/12/23 05:08:35;;;;;;;6.28;1.33;;;10.70;99.90;;;;;;5057945;28;20134;-65
2023/12/23 05:11:02;;;;;;;3.13;0.90;;;10.80;99.90;;;;;;5058721;28;20032;-65
2023/12/23 05:13:28;;;;;;;6.55;1.50;;;10.70;99.90;;;;;;5074656;28;20175;-66
2023/12/23 05:15:54;;;;;;;7.25;1.38;;;10.80;99.90;;;;;;5024880;28;20104;-62
2023/12/23 05:18:19;;;;;;;8.63;1.38;;;10.70;99.90;;;;;;5057807;28;20039;-62
2023/12/23 05:20:47;;;;;;;6.78;1.52;;;10.70;99.90;;;;;;5058518;28;20430;-62
2023/12/23 05:23:13;;;;;;;7.38;1.48;;;10.70;99.90;;;;;;5057823;28;20111;-64
2023/12/23 05:25:39;;;;;;;4.75;1.30;;;10.70;99.90;;;;;;5057790;28;20098;-63
2023/12/23 05:28:05;;;;;;;7.00;1.60;;;10.70;99.90;;;;;;5057565;28;20404;-64
2023/12/23 05:30:31;;;;;;;8.77;1.80;;;10.70;99.90;;;;;;5074074;28;20064;-65
2023/12/23 05:32:57;;;;;;;8.48;2.20;;;10.70;99.90;;;;;;5058196;28;20324;-64
2023/12/23 05:35:23;;;;;;;5.25;1.50;;;10.80;99.90;;;;;;5058294;28;20364;-64
2023/12/23 05:37:48;;;;;;;7.15;1.88;;;10.70;99.90;;;;;;5024632;28;20041;-61
2023/12/23 05:40:14;;;;;;;6.95;1.70;;;10.80;99.90;;;;;;5058273;28;20036;-64
2023/12/23 05:42:40;;;;;;;4.60;1.60;;;10.80;99.90;;;;;;5058121;28;20056;-64
2023/12/23 05:45:06;;;;;;;9.88;1.80;;;10.80;99.90;;;;;;5058183;28;20036;-64
2023/12/23 05:47:32;;;;;;;6.68;1.92;;;10.80;99.90;;;;;;5058158;28;20125;-64
2023/12/23 05:49:58;;;;;;;9.32;1.38;;;10.70;99.90;;;;;;5057996;28;20029;-65
2023/12/23 05:52:23;;;;;;;5.35;1.10;;;10.80;99.90;;;;;;5057235;28;20033;-64
2023/12/23 05:54:49;;;;;;;7.22;1.25;;;10.80;99.90;;;;;;5057978;28;20060;-66
2023/12/23 05:57:16;;;;;;;6.60;1.50;;;10.90;99.90;;;;;;5057875;28;20408;-65
2023/12/23 05:59:41;;;;;;;5.85;1.35;;;11.00;99.90;;;;;;5057821;28;20025;-64
2023/12/23 06:02:08;;;;;;;8.27;1.48;;;11.00;99.90;;;;;;5057759;28;20036;-67
2023/12/23 06:04:34;;;;;;;8.57;1.52;;;11.00;99.90;;;;;;5057718;28;20040;-65
2023/12/23 06:07:00;;;;;;;6.57;1.50;;;11.10;99.90;;;;;;5057578;28;20400;-63
2023/12/23 06:09:26;;;;;;;10.73;1.90;;;11.00;99.90;;;;;;5056512;28;20060;-63
2023/12/23 06:11:52;;;;;;;8.10;1.40;;;10.90;99.90;;;;;;5057834;28;20032;-66
2023/12/23 06:14:17;;;;;;;8.93;1.67;;;11.10;99.90;;;;;;5073408;28;20037;-65
2023/12/23 06:16:43;;;;;;;7.20;1.10;;;11.00;99.90;;;;;;5057733;28;20359;-63
2023/12/23 06:19:09;;;;;;;5.95;1.17;;;11.20;99.90;;;;;;5057429;28;20032;-66
2023/12/23 06:21:35;;;;;;;11.73;2.17;;;11.20;99.90;;;;;;5057737;28;20060;-64
2023/12/23 06:24:01;;;;;;;8.35;1.33;;;11.10;99.90;;;;;;5073359;28;20041;-65
2023/12/23 06:26:27;;;;;;;10.57;1.52;;;11.20;99.90;;;;;;5057700;28;20366;-65
2023/12/23 06:28:52;;;;;;;6.55;1.38;;;11.10;99.90;;;;;;5039979;28;20068;-65
2023/12/23 06:31:18;;;;;;;10.82;1.70;;;11.10;99.90;;;;;;5073308;28;20037;-66
2023/12/23 06:33:44;;;;;;;6.15;1.40;;;10.90;99.90;;;;;;5073010;28;20033;-63
2023/12/23 06:36:10;;;;;;;8.38;1.70;;;11.00;99.90;;;;;;5057275;28;20036;-62
2023/12/23 06:38:36;;;;;;;10.20;2.28;;;11.20;99.90;;;;;;5057172;28;20029;-64
2023/12/23 06:41:03;;;;;;;8.27;1.20;;;11.10;99.90;;;;;;5057134;28;20182;-69
2023/12/23 06:43:29;;;;;;;10.38;1.90;;;11.00;99.90;;;;;;5057246;28;20078;-64
2023/12/23 06:45:55;;;;;;;9.88;1.75;;;11.00;99.90;;;;;;5056354;28;20076;-63
2023/12/23 06:48:21;;;;;;;8.48;1.75;;;10.90;99.90;;;;;;5072763;28;20047;-62
2023/12/23 06:50:47;;;;;;;9.63;1.50;;;11.00;99.90;;;;;;5056542;28;20033;-66
2023/12/23 06:53:13;;;;;;;8.70;1.52;;;11.00;99.90;;;;;;5055935;28;20028;-62
2023/12/23 06:55:39;;;;;;;9.43;1.80;;;10.90;99.90;;;;;;5056158;28;20291;-65
2023/12/23 06:58:06;;;;;;;7.28;1.50;;;11.00;99.90;;;;;;5072927;28;20113;-66
2023/12/23 07:00:32;;;;;;;9.95;1.40;;;11.20;99.90;;;;;;5056702;28;20035;-65
2023/12/23 07:02:58;;;;;;;7.07;1.40;;;11.10;99.90;;;;;;5056622;28;20088;-63
2023/12/23 07:05:24;;;;;;;6.07;1.30;;;11.20;99.90;;;;;;5056753;28;20437;-63
2023/12/23 07:07:49;;;;;;;7.35;1.40;;;11.00;99.90;;;;;;5056638;28;20091;-62
2023/12/23 07:10:16;;;;;;;8.80;1.52;;;11.10;99.90;;;;;;5072749;28;20033;-61
2023/12/23 07:12:42;;;;;;;8.43;1.55;;;11.10;99.90;;;;;;5056895;28;20087;-63
2023/12/23 07:15:09;;;;;;;11.48;1.75;;;11.20;99.90;;;;;;5072712;28;20120;-64
2023/12/23 07:17:35;;;;;;;6.30;1.52;;;11.10;99.90;;;;;;5039406;28;20061;-62
2023/12/23 07:20:01;;;;;;;3.78;1.50;;;11.10;99.90;;;;;;5056691;28;20064;-64
2023/12/23 07:22:28;;;;;;;11.05;1.80;;;11.10;99.90;;;;;;5058837;28;20041;-62
2023/12/23 07:24:55;;;;;;;6.63;1.23;;;11.00;99.90;;;;;;5060864;28;20033;-64
2023/12/23 07:27:21;;;;;;;6.70;1.23;;;11.10;99.90;;;;;;5060622;28;20040;-64
2023/12/23 07:29:48;;;;;;;9.45;1.60;;;10.90;99.90;;;;;;5060658;28;20040;-64
2023/12/23 07:32:14;;;;;;;9.40;1.98;;;11.00;99.90;;;;;;5076425;28;20021;-64
2023/12/23 07:34:40;;;;;;;10.98;1.98;;;11.00;99.90;;;;;;5076588;28;20090;-65
2023/12/23 07:37:07;;;;;;;9.85;1.58;;;11.00;99.90;;;;;;5060601;28;20059;-65
2023/12/23 07:39:33;;;;;;;8.73;1.50;;;11.10;99.90;;;;;;5076440;28;20033;-63
2023/12/23 07:41:59;;;;;;;10.52;1.92;;;11.10;99.90;;;;;;5060573;28;20337;-66
2023/12/23 07:44:25;;;;;;;7.53;1.30;;;11.10;99.90;;;;;;5060344;28;20108;-63
2023/12/23 07:46:51;;;;;;;6.88;1.83;;;11.00;99.90;;;;;;5076201;28;20119;-64
2023/12/23 07:49:17;;;;;;;12.30;1.55;;;10.90;99.90;;;;;;5042963;28;20123;-63
2023/12/23 07:51:43;;;;;;;5.85;1.33;;;11.00;99.90;;;;;;5059503;28;20114;-63
2023/12/23 07:54:08;;;;;;;5.85;1.50;;;11.00;99.90;;;;;;5060152;28;20037;-63
2023/12/23 07:56:34;;;;;;;13.50;1.75;;;11.00;99.90;;;;;;5059258;28;20033;-63
2023/12/23 07:59:00;;;;;;;11.93;1.45;;;11.10;99.90;;;;;;5060204;28;20281;-63
2023/12/23 08:01:26;;;;;;;7.65;1.55;;;11.10;99.90;;;;;;5060122;28;20041;-64
2023/12/23 08:03:52;;;;;;;12.00;1.48;;;11.10;99.90;;;;;;5059847;28;20029;-64
2023/12/23 08:06:21;;;;;;;10.15;1.50;;;11.00;99.90;;;;;;5059955;28;20033;-64
2023/12/23 08:08:47;;;;;;;8.70;1.90;;;11.00;99.90;;;;;;5060014;28;20313;-64
2023/12/23 08:11:13;;;;;;;9.68;1.60;;;11.00;99.90;;;;;;5059428;28;20021;-63
2023/12/23 08:13:40;;;;;;;8.88;1.55;;;11.00;99.90;;;;;;5059821;28;20052;-61
2023/12/23 08:16:07;;;;;;;11.20;1.77;;;11.10;99.90;;;;;;5059675;28;20033;-63
2023/12/23 08:18:33;;;;;;;9.93;1.70;;;11.00;99.90;;;;;;5058906;28;20056;-64
2023/12/23 08:20:59;;;;;;;6.82;1.30;;;11.00;99.90;;;;;;5060075;28;20047;-66
2023/12/23 08:23:25;;;;;;;4.85;1.02;;;11.10;99.90;;;;;;5059571;28;20400;-64
2023/12/23 08:25:50;;;;;;;6.97;1.30;;;10.90;99.90;;;;;;5059776;28;20025;-65
2023/12/23 08:28:16;;;;;;;7.30;1.10;;;11.00;99.90;;;;;;5059470;28;20037;-65
2023/12/23 08:30:42;;;;;;;5.68;1.00;;;11.00;99.90;;;;;;5059247;28;20057;-65
2023/12/23 08:33:08;;;;;;;11.25;1.50;;;11.00;99.90;;;;;;5059137;28;20112;-66
2023/12/23 08:35:34;;;;;;;8.55;1.20;;;10.90;99.90;;;;;;5075417;28;20096;-63
2023/12/23 08:37:59;;;;;;;5.93;1.13;;;10.90;99.90;;;;;;5059312;28;20033;-63
2023/12/23 08:40:26;;;;;;;6.35;1.02;;;11.00;99.90;;;;;;5059341;28;20025;-63
2023/12/23 08:42:52;;;;;;;7.57;1.50;;;11.00;99.90;;;;;;5058495;28;20055;-62
2023/12/23 08:45:18;;;;;;;8.88;1.08;;;11.00;99.90;;;;;;5059284;28;20025;-61
2023/12/23 08:47:44;;;;;;;5.45;1.05;;;11.00;99.90;;;;;;5075112;28;20040;-62
2023/12/23 08:50:10;;;;;;;7.00;1.23;;;11.00;99.90;;;;;;5059152;28;20029;-61
2023/12/23 08:52:36;;;;;;;6.50;1.58;;;11.00;99.90;;;;;;5058999;28;20107;-63
2023/12/23 08:55:02;;;;;;;7.65;1.30;;;11.00;99.90;;;;;;5059085;28;20151;-64
2023/12/23 08:57:28;;;;;;;7.97;1.60;;;11.10;99.90;;;;;;5058247;28;20192;-66
2023/12/23 08:59:54;;;;;;;5.45;1.25;;;11.10;99.90;;;;;;5058137;28;20347;-64
2023/12/23 09:02:20;;;;;;;7.07;1.40;;;11.10;99.90;;;;;;5058860;28;20105;-62
2023/12/23 09:04:46;;;;;;;6.00;1.30;;;11.20;99.90;;;;;;5059215;28;20032;-63
2023/12/23 09:07:12;;;;;;;6.97;1.10;;;11.30;99.90;;;;;;5058849;28;20033;-59
2023/12/23 09:09:41;;;;;;;5.50;1.20;;;11.30;99.90;;;;;;5058801;28;20048;-63
2023/12/23 09:12:07;;;;;;;5.85;0.93;;;11.30;99.90;;;;;;5074694;28;20098;-64
2023/12/23 09:14:33;;;;;;;9.95;1.30;;;11.40;99.90;;;;;;5058684;28;20029;-62
2023/12/23 09:16:59;;;;;;;5.47;1.15;;;11.40;99.90;;;;;;5041410;28;20136;-63
2023/12/23 09:19:25;;;;;;;7.47;1.15;;;11.40;99.90;;;;;;5058548;28;20044;-68
2023/12/23 09:21:51;;;;;;;5.28;1.02;;;11.50;99.90;;;;;;5058612;28;20484;-63
2023/12/23 09:24:17;;;;;;;11.85;1.33;;;11.60;99.90;;;;;;5058530;28;20029;-66
2023/12/23 09:26:43;;;;;;;5.55;1.23;;;11.50;99.90;;;;;;5058582;28;20051;-62
2023/12/23 09:29:09;;;;;;;6.72;1.35;;;11.40;99.90;;;;;;5057404;28;20053;-61
2023/12/23 09:31:35;;;;;;;8.55;1.20;;;11.40;99.90;;;;;;5058627;28;20035;-65
2023/12/23 09:34:01;;;;;;;5.25;1.20;;;11.40;99.90;;;;;;5058301;28;20277;-62
2023/12/23 09:36:27;;;;;;;6.00;1.27;;;11.30;99.90;;;;;;5058552;28;20033;-64
2023/12/23 09:38:52;;;;;;;9.32;1.85;;;11.30;99.90;;;;;;5058240;28;20037;-64
2023/12/23 09:41:18;;;;;;;7.78;1.50;;;11.40;99.90;;;;;;5058265;28;20323;-65
2023/12/23 09:43:45;;;;;;;6.35;1.20;;;11.40;99.90;;;;;;5057860;28;20040;-65
2023/12/23 09:46:14;;;;;;;5.15;1.38;;;11.40;99.90;;;;;;5057624;28;20052;-65
2023/12/23 09:48:40;;;;;;;8.40;1.40;;;11.40;99.90;;;;;;5057919;28;20408;-67
2023/12/23 09:51:07;;;;;;;7.88;1.52;;;11.40;99.90;;;;;;5073852;28;20106;-62
2023/12/23 09:53:39;;;;;;;6.78;1.50;;;11.50;99.90;;;;;;5057886;28;20029;-64
2023/12/23 09:56:07;;;;;;;6.20;1.20;;;11.60;99.90;;;;;;5057367;28;20047;-64
2023/12/23 09:58:34;;;;;;;8.57;1.17;;;11.60;99.90;;;;;;5057209;28;20043;-66
2023/12/23 10:01:00;;;;;;;5.53;1.10;;;11.60;99.90;;;;;;5057866;28;20033;-68
2023/12/23 10:03:26;;;;;;;6.47;1.35;;;11.60;99.90;;;;;;5057780;28;20059;-65
2023/12/23 10:05:52;;;;;;;7.35;1.13;;;11.70;99.90;;;;;;5057222;28;20029;-65
2023/12/23 10:08:18;;;;;;;5.90;1.10;;;11.80;99.90;;;;;;5057600;28;20037;-64
2023/12/23 10:10:46;;;;;;;6.22;1.27;;;11.90;97.60;;;;;;5056829;28;20064;-66
2023/12/23 10:13:12;;;;;;;6.57;1.42;;;12.10;93.30;;;;;;5057493;28;20365;-66
2023/12/23 10:15:41;;;;;;;5.47;1.30;;;12.10;92.20;;;;;;5073288;28;20143;-70
2023/12/23 10:18:11;;;;;;;5.60;1.10;;;12.20;91.50;;;;;;5056871;28;20103;-66
2023/12/23 10:20:37;;;;;;;8.32;1.50;;;12.20;84.20;;;;;;5057568;28;20033;-65
2023/12/23 10:23:03;;;;;;;7.32;1.15;;;12.20;83.40;;;;;;5057392;28;20025;-65
2023/12/23 10:25:30;;;;;;;6.70;1.30;;;12.10;90.20;;;;;;5073306;28;20047;-66
2023/12/23 10:28:05;;;;;;;4.93;1.25;;;12.20;86.40;;;;;;5057265;28;20033;-65
2023/12/23 10:30:34;;;;;;;8.50;1.42;;;12.30;84.20;;;;;;5057188;28;20110;-65
2023/12/23 10:33:05;;;;;;;6.55;1.27;;;12.50;72.70;;;;;;5057224;28;20388;-65
2023/12/23 10:35:38;;;;;;;8.70;1.70;;;12.40;72.10;;;;;;5057525;28;20292;-66
2023/12/23 10:38:08;;;;;;;3.90;1.05;;;12.40;69.40;;;;;;5057255;28;20358;-66
2023/12/23 10:40:34;;;;;;;7.13;1.23;;;12.40;67.40;;;;;;5057194;28;20040;-65
2023/12/23 10:43:02;;;;;;;3.72;1.00;;;12.40;63.50;;;;;;5056953;28;20392;-65
2023/12/23 10:45:27;;;;;;;5.32;1.10;;;12.40;66.10;;;;;;5057096;28;20326;-65
2023/12/23 10:47:54;;;;;;;7.35;1.10;;;12.60;59.80;;;;;;5057113;28;20118;-64
2023/12/23 10:50:20;;;;;;;4.72;1.20;;;12.60;53.90;;;;;;5056926;28;20392;-65
2023/12/23 10:52:47;;;;;;;4.05;1.08;;;12.60;53.60;;;;;;5056902;28;20041;-66
2023/12/23 10:55:16;;;;;;;7.25;1.00;;;12.50;58.70;;;;;;5056803;28;20025;-68
2023/12/23 10:57:43;;;;;;;7.78;1.27;;;12.40;61.60;;;;;;5056749;28;20045;-65
2023/12/23 11:00:09;;;;;;;5.88;1.30;;;12.20;68.40;;;;;;5057283;28;20446;-62
2023/12/23 11:02:38;;;;;;;5.63;1.15;;;12.30;71.80;;;;;;5055899;28;20029;-65
2023/12/23 11:05:07;;;;;;;6.88;1.38;;;12.50;92.70;;;;;;5056779;28;20385;-65
2023/12/23 11:07:42;;;;;;;5.20;1.17;;;12.60;75.80;;;;;;5056471;28;20053;-68
2023/12/23 11:10:09;;;;;;;8.90;1.20;;;12.70;58.70;;;;;;5056990;28;20589;-69
2023/12/23 11:12:36;;;;;;;4.22;1.05;;;12.50;62.80;;;;;;5056626;28;20037;-69
2023/12/23 11:15:02;;;;;;;3.78;0.95;;;12.40;71.00;;;;;;5056697;28;20320;-68
2023/12/23 11:17:30;;;;;;;7.50;0.82;;;12.40;72.00;;;;;;5072553;28;20037;-68
2023/12/23 11:19:57;;;;;;;8.35;1.25;;;12.40;68.50;;;;;;5072499;28;20116;-70
2023/12/23 11:22:37;;;;;;;8.27;1.33;;;12.30;77.70;;;;;;5056444;28;20029;-68
2023/12/23 11:25:03;;;;;;;5.07;1.20;;;12.30;76.30;;;;;;5056604;28;20033;-67
2023/12/23 11:27:35;;;;;;;5.60;1.17;;;12.30;79.90;;;;;;5039412;28;20033;-64
2023/12/23 11:30:05;;;;;;;3.87;0.80;;;12.30;78.90;;;;;;5057048;28;20049;-67
2023/12/23 11:32:39;;;;;;;5.30;1.20;;;12.60;68.20;;;;;;5072877;28;20275;-65
2023/12/23 11:35:07;;;;;;;8.63;1.35;;;12.40;67.90;;;;;;5055922;28;20029;-69
2023/12/23 11:37:53;;;;;;;6.40;1.65;;;12.50;71.80;;;;;;5072422;28;20166;-70
2023/12/23 11:40:20;;;;;;;6.13;1.15;;;12.50;71.00;;;;;;5056359;28;20045;-70
2023/12/23 11:42:49;;;;;;;5.88;1.08;;;12.60;66.70;;;;;;5056433;28;20028;-66
2023/12/23 11:45:15;;;;;;;4.18;1.10;;;12.60;69.40;;;;;;5056511;28;20033;-65
2023/12/23 11:47:41;;;;;;;5.30;1.02;;;12.50;68.10;;;;;;5056271;28;20028;-71
2023/12/23 11:50:09;;;;;;;3.15;1.00;;;12.50;75.70;;;;;;5056424;28;20036;-71
2023/12/23 11:52:35;;;;;;;5.05;0.95;;;12.70;66.20;;;;;;5056287;28;20029;-64
2023/12/23 11:55:05;;;;;;;7.32;1.08;;;12.80;58.70;;;;;;5056264;28;20159;-71
2023/12/23 11:57:31;;;;;;;3.78;1.10;;;12.70;61.80;;;;;;5038946;28;20040;-72
2023/12/23 12:00:02;;;;;;;5.18;1.42;;;12.60;68.90;;;;;;5055587;28;20104;-70
2023/12/23 12:02:27;;;;;;;3.53;0.70;;;12.50;75.30;;;;;;5055474;28;20036;-72
2023/12/23 12:04:53;;;;;;;8.15;1.02;;;12.60;71.10;;;;;;5072119;28;20021;-68
2023/12/23 12:07:20;;;;;;;8.68;1.00;;;12.60;66.10;;;;;;5072182;28;20075;-64
2023/12/23 12:09:46;;;;;;;4.63;1.13;;;12.70;59.20;;;;;;5059926;28;20021;-69
2023/12/23 12:12:13;;;;;;;4.25;0.90;;;12.50;76.00;;;;;;5075808;28;20033;-66
2023/12/23 12:14:39;;;;;;;2.42;0.70;;;12.50;71.00;;;;;;5059861;28;20029;-72
2023/12/23 12:17:07;;;;;;;5.00;0.73;;;12.50;70.50;;;;;;5075669;28;20040;-71
2023/12/23 12:19:33;;;;;;;4.90;1.30;;;12.40;73.20;;;;;;5058989;28;20384;-69
2023/12/23 12:21:59;;;;;;;5.65;1.17;;;12.40;78.40;;;;;;5059694;28;20274;-70
2023/12/23 12:24:26;;;;;;;3.08;0.90;;;12.50;75.60;;;;;;5059662;28;20036;-71
2023/12/23 12:26:57;;;;;;;5.15;0.88;;;12.60;75.30;;;;;;5059494;28;20029;-70
2023/12/23 12:29:23;;;;;;;7.18;1.75;;;12.60;70.40;;;;;;5075243;28;20073;-69
2023/12/23 12:31:50;;;;;;;2.47;0.80;;;12.60;69.70;;;;;;5059517;28;20093;-71
2023/12/23 12:34:16;;;;;;;6.07;1.00;;;12.60;68.90;;;;;;5058766;28;20101;-64
2023/12/23 12:36:42;;;;;;;5.53;1.27;;;12.50;73.60;;;;;;5059620;28;20032;-70
2023/12/23 12:39:09;;;;;;;5.25;1.13;;;12.60;75.60;;;;;;5058581;28;20031;-71
2023/12/23 12:41:37;;;;;;;4.90;1.65;;;12.50;80.90;;;;;;5059376;28;20057;-72